sensor_id;sensor_type;location;lat;lon;timestamp;pressure;altitude;pressure_sealevel;temperature;humidity
75247;BME280;63844;50.042;19.224;2023-04-06T00:00:04;99439.55;;;-1.78;64.15
75247;BME280;63844;50.042;19.224;2023-04-06T00:02:51;99444.13;;;-1.85;66.94
75247;BME280;63844;50.042;19.224;2023-04-06T00:05:19;99445.75;;;-1.92;68.92
75247;BME280;63844;50.042;19.224;2023-04-06T00:07:46;99445.92;;;-1.94;68.91
75247;BME280;63844;50.042;19.224;2023-04-06T00:10:12;99447.17;;;-1.98;69.51
75247;BME280;63844;50.042;19.224;2023-04-06T00:12:39;99443.36;;;-1.99;67.56
75247;BME280;63844;50.042;19.224;2023-04-06T00:15:05;99444.42;;;-2.01;69.41
75247;BME280;63844;50.042;19.224;2023-04-06T00:17:32;99440.29;;;-2.04;66.34
75247;BME280;63844;50.042;19.224;2023-04-06T00:19:59;99442.56;;;-2.08;66.68
75247;BME280;63844;50.042;19.224;2023-04-06T00:22:25;99443.98;;;-2.11;66.78
75247;BME280;63844;50.042;19.224;2023-04-06T00:24:52;99444.34;;;-2.13;66.50
75247;BME280;63844;50.042;19.224;2023-04-06T00:27:18;99437.92;;;-2.13;67.20
75247;BME280;63844;50.042;19.224;2023-04-06T00:29:44;99440.17;;;-2.13;66.19
75247;BME280;63844;50.042;19.224;2023-04-06T00:32:11;99440.90;;;-2.17;66.66
75247;BME280;63844;50.042;19.224;2023-04-06T00:34:38;99438.50;;;-2.18;66.33
75247;BME280;63844;50.042;19.224;2023-04-06T00:37:04;99437.63;;;-2.19;67.12
75247;BME280;63844;50.042;19.224;2023-04-06T00:39:31;99441.46;;;-2.22;67.23
75247;BME280;63844;50.042;19.224;2023-04-06T00:41:57;99439.94;;;-2.27;67.19
75247;BME280;63844;50.042;19.224;2023-04-06T00:44:24;99435.94;;;-2.27;69.99
75247;BME280;63844;50.042;19.224;2023-04-06T00:46:50;99436.63;;;-2.26;69.30
75247;BME280;63844;50.042;19.224;2023-04-06T00:49:17;99434.92;;;-2.30;67.47
75247;BME280;63844;50.042;19.224;2023-04-06T00:51:44;99432.36;;;-2.34;67.61
75247;BME280;63844;50.042;19.224;2023-04-06T00:54:10;99435.50;;;-2.37;67.09
75247;BME280;63844;50.042;19.224;2023-04-06T00:56:37;99431.71;;;-2.40;68.91
75247;BME280;63844;50.042;19.224;2023-04-06T00:59:03;99430.66;;;-2.40;67.62
75247;BME280;63844;50.042;19.224;2023-04-06T01:01:30;99435.20;;;-2.43;68.24
75247;BME280;63844;50.042;19.224;2023-04-06T01:03:58;99435.03;;;-2.45;68.21
75247;BME280;63844;50.042;19.224;2023-04-06T01:06:25;99438.17;;;-2.48;68.89
75247;BME280;63844;50.042;19.224;2023-04-06T01:08:51;99438.52;;;-2.48;68.39
75247;BME280;63844;50.042;19.224;2023-04-06T01:11:17;99439.73;;;-2.51;68.73
75247;BME280;63844;50.042;19.224;2023-04-06T01:13:44;99435.60;;;-2.53;69.44
75247;BME280;63844;50.042;19.224;2023-04-06T01:16:11;99433.52;;;-2.52;68.02
75247;BME280;63844;50.042;19.224;2023-04-06T01:18:38;99431.09;;;-2.52;67.45
75247;BME280;63844;50.042;19.224;2023-04-06T01:21:04;99434.91;;;-2.55;67.87
75247;BME280;63844;50.042;19.224;2023-04-06T01:23:31;99429.71;;;-2.54;67.77
75247;BME280;63844;50.042;19.224;2023-04-06T01:25:57;99432.67;;;-2.56;68.62
75247;BME280;63844;50.042;19.224;2023-04-06T01:28:24;99427.83;;;-2.57;69.31
75247;BME280;63844;50.042;19.224;2023-04-06T01:30:50;99433.03;;;-2.59;68.91
75247;BME280;63844;50.042;19.224;2023-04-06T01:33:17;99433.39;;;-2.60;68.96
75247;BME280;63844;50.042;19.224;2023-04-06T01:35:43;99429.59;;;-2.61;69.01
75247;BME280;63844;50.042;19.224;2023-04-06T01:38:10;99428.56;;;-2.63;67.99
75247;BME280;63844;50.042;19.224;2023-04-06T01:40:36;99425.29;;;-2.66;68.19
75247;BME280;63844;50.042;19.224;2023-04-06T01:43:02;99422.01;;;-2.67;69.41
75247;BME280;63844;50.042;19.224;2023-04-06T01:45:29;99424.77;;;-2.69;68.52
75247;BME280;63844;50.042;19.224;2023-04-06T01:47:55;99425.14;;;-2.70;69.45
75247;BME280;63844;50.042;19.224;2023-04-06T01:50:22;99423.05;;;-2.71;69.58
75247;BME280;63844;50.042;19.224;2023-04-06T01:52:48;99424.25;;;-2.69;70.63
75247;BME280;63844;50.042;19.224;2023-04-06T01:55:15;99420.44;;;-2.67;68.75
75247;BME280;63844;50.042;19.224;2023-04-06T01:57:41;99420.45;;;-2.68;69.27
75247;BME280;63844;50.042;19.224;2023-04-06T02:00:08;99417.67;;;-2.70;70.60
75247;BME280;63844;50.042;19.224;2023-04-06T02:02:34;99419.77;;;-2.71;69.53
75247;BME280;63844;50.042;19.224;2023-04-06T02:05:01;99419.08;;;-2.70;69.45
75247;BME280;63844;50.042;19.224;2023-04-06T02:07:27;99415.77;;;-2.70;68.29
75247;BME280;63844;50.042;19.224;2023-04-06T02:09:55;99412.15;;;-2.72;68.18
75247;BME280;63844;50.042;19.224;2023-04-06T02:12:22;99411.64;;;-2.75;69.08
75247;BME280;63844;50.042;19.224;2023-04-06T02:14:48;99410.77;;;-2.75;68.70
75247;BME280;63844;50.042;19.224;2023-04-06T02:17:14;99406.45;;;-2.75;68.79
75247;BME280;63844;50.042;19.224;2023-04-06T02:19:41;99405.25;;;-2.76;68.77
75247;BME280;63844;50.042;19.224;2023-04-06T02:22:09;99403.70;;;-2.77;69.30
75247;BME280;63844;50.042;19.224;2023-04-06T02:24:35;99404.74;;;-2.80;68.59
75247;BME280;63844;50.042;19.224;2023-04-06T02:27:02;99405.63;;;-2.84;69.14
75247;BME280;63844;50.042;19.224;2023-04-06T02:29:29;99405.48;;;-2.87;68.42
75247;BME280;63844;50.042;19.224;2023-04-06T02:31:55;99409.31;;;-2.92;71.57
75247;BME280;63844;50.042;19.224;2023-04-06T02:34:22;99409.34;;;-2.97;71.83
75247;BME280;63844;50.042;19.224;2023-04-06T02:36:48;99406.92;;;-3.00;70.69
75247;BME280;63844;50.042;19.224;2023-04-06T02:39:14;99410.92;;;-3.03;69.80
75247;BME280;63844;50.042;19.224;2023-04-06T02:41:41;99410.25;;;-3.05;69.47
75247;BME280;63844;50.042;19.224;2023-04-06T02:44:08;99408.34;;;-3.05;70.05
75247;BME280;63844;50.042;19.224;2023-04-06T02:46:35;99407.29;;;-3.04;69.40
75247;BME280;63844;50.042;19.224;2023-04-06T02:49:01;99414.22;;;-3.05;69.60
75247;BME280;63844;50.042;19.224;2023-04-06T02:51:28;99419.09;;;-3.09;70.21
75247;BME280;63844;50.042;19.224;2023-04-06T02:53:54;99419.26;;;-3.12;70.30
75247;BME280;63844;50.042;19.224;2023-04-06T02:56:21;99422.40;;;-3.14;70.47
75247;BME280;63844;50.042;19.224;2023-04-06T02:58:47;99420.85;;;-3.15;69.90
75247;BME280;63844;50.042;19.224;2023-04-06T03:01:14;99422.56;;;-3.18;72.13
75247;BME280;63844;50.042;19.224;2023-04-06T03:03:41;99421.55;;;-3.19;70.35
75247;BME280;63844;50.042;19.224;2023-04-06T03:06:07;99424.66;;;-3.21;69.94
75247;BME280;63844;50.042;19.224;2023-04-06T03:08:34;99423.13;;;-3.24;70.98
75247;BME280;63844;50.042;19.224;2023-04-06T03:11:00;99422.27;;;-3.26;71.38
75247;BME280;63844;50.042;19.224;2023-04-06T03:13:27;99422.44;;;-3.25;70.86
75247;BME280;63844;50.042;19.224;2023-04-06T03:15:53;99421.92;;;-3.28;70.84
75247;BME280;63844;50.042;19.224;2023-04-06T03:18:24;99427.47;;;-3.30;73.07
75247;BME280;63844;50.042;19.224;2023-04-06T03:20:51;99423.85;;;-3.34;71.84
75247;BME280;63844;50.042;19.224;2023-04-06T03:23:20;99428.36;;;-3.39;71.58
75247;BME280;63844;50.042;19.224;2023-04-06T03:25:47;99425.95;;;-3.41;71.50
75247;BME280;63844;50.042;19.224;2023-04-06T03:28:13;99423.35;;;-3.43;71.07
75247;BME280;63844;50.042;19.224;2023-04-06T03:30:40;99428.56;;;-3.47;70.53
75247;BME280;63844;50.042;19.224;2023-04-06T03:33:07;99428.89;;;-3.49;71.44
75247;BME280;63844;50.042;19.224;2023-04-06T03:35:33;99427.52;;;-3.50;70.38
75247;BME280;63844;50.042;19.224;2023-04-06T03:38:00;99427.70;;;-3.49;70.30
75247;BME280;63844;50.042;19.224;2023-04-06T03:40:26;99432.02;;;-3.50;70.62
75247;BME280;63844;50.042;19.224;2023-04-06T03:42:52;99435.14;;;-3.52;70.80
75247;BME280;63844;50.042;19.224;2023-04-06T03:45:19;99435.48;;;-3.52;72.96
75247;BME280;63844;50.042;19.224;2023-04-06T03:47:45;99437.39;;;-3.50;73.10
75247;BME280;63844;50.042;19.224;2023-04-06T03:50:12;99434.10;;;-3.50;71.10
75247;BME280;63844;50.042;19.224;2023-04-06T03:52:38;99438.27;;;-3.53;70.94
75247;BME280;63844;50.042;19.224;2023-04-06T03:55:05;99436.36;;;-3.57;70.95
75247;BME280;63844;50.042;19.224;2023-04-06T03:57:32;99439.14;;;-3.60;71.56
75247;BME280;63844;50.042;19.224;2023-04-06T03:59:58;99442.08;;;-3.62;71.63
75247;BME280;63844;50.042;19.224;2023-04-06T04:02:25;99441.40;;;-3.63;70.59
75247;BME280;63844;50.042;19.224;2023-04-06T04:04:52;99442.61;;;-3.67;70.47
75247;BME280;63844;50.042;19.224;2023-04-06T04:07:18;99444.33;;;-3.69;71.96
75247;BME280;63844;50.042;19.224;2023-04-06T04:09:45;99444.35;;;-3.67;73.80
75247;BME280;63844;50.042;19.224;2023-04-06T04:12:11;99442.61;;;-3.68;72.59
75247;BME280;63844;50.042;19.224;2023-04-06T04:14:38;99443.98;;;-3.67;71.88
75247;BME280;63844;50.042;19.224;2023-04-06T04:17:04;99444.70;;;-3.65;71.92
75247;BME280;63844;50.042;19.224;2023-04-06T04:19:31;99446.06;;;-3.63;71.92
75247;BME280;63844;50.042;19.224;2023-04-06T04:21:57;99446.92;;;-3.62;71.40
75247;BME280;63844;50.042;19.224;2023-04-06T04:24:23;99443.80;;;-3.60;72.00
75247;BME280;63844;50.042;19.224;2023-04-06T04:26:50;99445.17;;;-3.56;71.15
75247;BME280;63844;50.042;19.224;2023-04-06T04:29:16;99444.31;;;-3.52;73.78
75247;BME280;63844;50.042;19.224;2023-04-06T04:31:46;99444.48;;;-3.49;76.79
75247;BME280;63844;50.042;19.224;2023-04-06T04:34:13;99446.73;;;-3.46;73.19
75247;BME280;63844;50.042;19.224;2023-04-06T04:36:41;99441.00;;;-3.41;74.03
75247;BME280;63844;50.042;19.224;2023-04-06T04:39:08;99439.77;;;-3.33;72.97
75247;BME280;63844;50.042;19.224;2023-04-06T04:41:34;99442.86;;;-3.26;71.47
75247;BME280;63844;50.042;19.224;2023-04-06T04:44:01;99442.52;;;-3.24;72.18
75247;BME280;63844;50.042;19.224;2023-04-06T04:46:27;99439.88;;;-3.17;71.77
75247;BME280;63844;50.042;19.224;2023-04-06T04:48:54;99433.29;;;-3.09;73.64
75247;BME280;63844;50.042;19.224;2023-04-06T04:51:21;99435.34;;;-3.06;74.27
75247;BME280;63844;50.042;19.224;2023-04-06T04:53:47;99441.38;;;-3.02;73.26
75247;BME280;63844;50.042;19.224;2023-04-06T04:56:14;99439.11;;;-2.97;71.78
75247;BME280;63844;50.042;19.224;2023-04-06T04:58:40;99434.92;;;-2.90;71.42
75247;BME280;63844;50.042;19.224;2023-04-06T05:01:07;99434.75;;;-2.86;71.24
75247;BME280;63844;50.042;19.224;2023-04-06T05:03:34;99436.98;;;-2.81;72.16
75247;BME280;63844;50.042;19.224;2023-04-06T05:06:02;99433.66;;;-2.80;73.09
75247;BME280;63844;50.042;19.224;2023-04-06T05:08:28;99432.95;;;-2.76;74.74
75247;BME280;63844;50.042;19.224;2023-04-06T05:10:54;99436.21;;;-2.73;74.90
75247;BME280;63844;50.042;19.224;2023-04-06T05:13:21;99436.55;;;-2.67;73.25
75247;BME280;63844;50.042;19.224;2023-04-06T05:15:48;99436.33;;;-2.59;74.05
75247;BME280;63844;50.042;19.224;2023-04-06T05:18:14;99435.60;;;-2.53;74.24
75247;BME280;63844;50.042;19.224;2023-04-06T05:20:42;99434.35;;;-2.48;73.74
75247;BME280;63844;50.042;19.224;2023-04-06T05:23:08;99437.23;;;-2.37;72.62
75247;BME280;63844;50.042;19.224;2023-04-06T05:25:35;99436.48;;;-2.30;72.18
75247;BME280;63844;50.042;19.224;2023-04-06T05:28:01;99439.38;;;-2.22;72.44
75247;BME280;63844;50.042;19.224;2023-04-06T05:30:28;99440.89;;;-2.15;73.18
75247;BME280;63844;50.042;19.224;2023-04-06T05:32:54;99438.92;;;-2.08;71.79
75247;BME280;63844;50.042;19.224;2023-04-06T05:35:21;99437.31;;;-2.01;72.65
75247;BME280;63844;50.042;19.224;2023-04-06T05:37:47;99435.20;;;-1.97;72.16
75247;BME280;63844;50.042;19.224;2023-04-06T05:40:14;99435.31;;;-1.91;72.03
75247;BME280;63844;50.042;19.224;2023-04-06T05:42:42;99434.91;;;-1.84;72.17
75247;BME280;63844;50.042;19.224;2023-04-06T05:45:09;99430.90;;;-1.81;72.33
75247;BME280;63844;50.042;19.224;2023-04-06T05:47:37;99429.45;;;-1.76;72.31
75247;BME280;63844;50.042;19.224;2023-04-06T05:50:04;99429.27;;;-1.71;72.35
75247;BME280;63844;50.042;19.224;2023-04-06T05:52:31;99426.27;;;-1.69;72.89
75247;BME280;63844;50.042;19.224;2023-04-06T05:54:57;99427.73;;;-1.61;72.57
75247;BME280;63844;50.042;19.224;2023-04-06T05:57:23;99424.52;;;-1.50;71.82
75247;BME280;63844;50.042;19.224;2023-04-06T05:59:50;99425.52;;;-1.47;72.49
75247;BME280;63844;50.042;19.224;2023-04-06T06:02:16;99425.98;;;-1.41;72.25
75247;BME280;63844;50.042;19.224;2023-04-06T06:04:43;99419.85;;;-1.34;71.96
75247;BME280;63844;50.042;19.224;2023-04-06T06:07:09;99420.44;;;-1.26;72.03
75247;BME280;63844;50.042;19.224;2023-04-06T06:09:36;99417.61;;;-1.21;71.73
75247;BME280;63844;50.042;19.224;2023-04-06T06:12:03;99417.19;;;-1.15;70.98
75247;BME280;63844;50.042;19.224;2023-04-06T06:14:30;99416.76;;;-1.08;70.80
75247;BME280;63844;50.042;19.224;2023-04-06T06:16:56;99416.52;;;-1.02;70.01
75247;BME280;63844;50.042;19.224;2023-04-06T06:19:23;99417.19;;;-1.00;70.07
75247;BME280;63844;50.042;19.224;2023-04-06T06:21:49;99414.48;;;-0.92;70.02
75247;BME280;63844;50.042;19.224;2023-04-06T06:24:16;99416.27;;;-0.82;69.77
75247;BME280;63844;50.042;19.224;2023-04-06T06:26:42;99418.41;;;-0.75;69.07
75247;BME280;63844;50.042;19.224;2023-04-06T06:29:09;99414.99;;;-0.65;69.47
75247;BME280;63844;50.042;19.224;2023-04-06T06:31:36;99415.84;;;-0.51;69.11
75247;BME280;63844;50.042;19.224;2023-04-06T06:34:02;99415.88;;;-0.41;68.44
75247;BME280;63844;50.042;19.224;2023-04-06T06:36:29;99414.14;;;-0.42;67.53
75247;BME280;63844;50.042;19.224;2023-04-06T06:38:57;99416.06;;;-0.32;67.88
75247;BME280;63844;50.042;19.224;2023-04-06T06:41:25;99416.89;;;-0.17;67.43
75247;BME280;63844;50.042;19.224;2023-04-06T06:43:52;99415.02;;;-0.09;66.70
75247;BME280;63844;50.042;19.224;2023-04-06T06:46:18;99416.73;;;0.02;67.04
75247;BME280;63844;50.042;19.224;2023-04-06T06:48:45;99420.50;;;0.17;66.22
75247;BME280;63844;50.042;19.224;2023-04-06T06:51:11;99421.45;;;0.23;65.10
75247;BME280;63844;50.042;19.224;2023-04-06T06:53:38;99420.83;;;0.38;65.74
75247;BME280;63844;50.042;19.224;2023-04-06T06:56:05;99418.38;;;0.58;65.80
75247;BME280;63844;50.042;19.224;2023-04-06T06:58:31;99418.02;;;0.77;63.21
75247;BME280;63844;50.042;19.224;2023-04-06T07:00:58;99416.73;;;0.97;63.52
75247;BME280;63844;50.042;19.224;2023-04-06T07:03:25;99413.42;;;1.14;63.44
75247;BME280;63844;50.042;19.224;2023-04-06T07:05:52;99412.09;;;1.36;62.54
75247;BME280;63844;50.042;19.224;2023-04-06T07:08:22;99413.70;;;1.50;59.87
75247;BME280;63844;50.042;19.224;2023-04-06T07:10:51;99412.45;;;1.67;61.28
75247;BME280;63844;50.042;19.224;2023-04-06T07:13:24;99407.63;;;1.86;61.01
75247;BME280;63844;50.042;19.224;2023-04-06T07:15:53;99409.95;;;1.98;58.53
75247;BME280;63844;50.042;19.224;2023-04-06T07:18:20;99412.67;;;1.93;56.89
75247;BME280;63844;50.042;19.224;2023-04-06T07:20:47;99410.40;;;1.87;56.63
75247;BME280;63844;50.042;19.224;2023-04-06T07:23:13;99408.03;;;1.90;56.09
75247;BME280;63844;50.042;19.224;2023-04-06T07:25:40;99410.13;;;2.05;57.24
75247;BME280;63844;50.042;19.224;2023-04-06T07:28:07;99409.27;;;2.05;55.48
75247;BME280;63844;50.042;19.224;2023-04-06T07:30:33;99410.70;;;2.11;55.42
75247;BME280;63844;50.042;19.224;2023-04-06T07:32:59;99410.97;;;2.20;56.88
75247;BME280;63844;50.042;19.224;2023-04-06T07:35:26;99407.73;;;2.24;55.63
75247;BME280;63844;50.042;19.224;2023-04-06T07:37:54;99407.95;;;2.23;55.55
75247;BME280;63844;50.042;19.224;2023-04-06T07:40:21;99406.58;;;2.21;55.04
75247;BME280;63844;50.042;19.224;2023-04-06T07:42:47;99399.88;;;2.31;54.86
75247;BME280;63844;50.042;19.224;2023-04-06T07:45:14;99405.40;;;2.34;54.27
75247;BME280;63844;50.042;19.224;2023-04-06T07:47:42;99405.10;;;2.38;55.17
75247;BME280;63844;50.042;19.224;2023-04-06T07:50:09;99405.45;;;2.44;55.22
75247;BME280;63844;50.042;19.224;2023-04-06T07:52:36;99406.93;;;2.55;55.35
75247;BME280;63844;50.042;19.224;2023-04-06T07:55:03;99402.02;;;2.62;55.03
75247;BME280;63844;50.042;19.224;2023-04-06T07:57:29;99400.72;;;2.71;55.11
75247;BME280;63844;50.042;19.224;2023-04-06T07:59:56;99405.73;;;2.80;55.53
75247;BME280;63844;50.042;19.224;2023-04-06T08:02:22;99402.58;;;2.68;54.23
75247;BME280;63844;50.042;19.224;2023-04-06T08:04:49;99405.70;;;2.55;53.54
75247;BME280;63844;50.042;19.224;2023-04-06T08:07:15;99401.78;;;2.38;53.75
75247;BME280;63844;50.042;19.224;2023-04-06T08:09:42;99406.27;;;2.34;54.28
75247;BME280;63844;50.042;19.224;2023-04-06T08:12:08;99402.92;;;2.41;54.45
75247;BME280;63844;50.042;19.224;2023-04-06T08:14:35;99405.54;;;2.34;54.10
75247;BME280;63844;50.042;19.224;2023-04-06T08:17:02;99403.75;;;2.30;54.35
75247;BME280;63844;50.042;19.224;2023-04-06T08:19:28;99408.16;;;2.21;53.49
75247;BME280;63844;50.042;19.224;2023-04-06T08:21:54;99405.02;;;2.14;54.11
75247;BME280;63844;50.042;19.224;2023-04-06T08:24:21;99403.13;;;2.06;54.03
75247;BME280;63844;50.042;19.224;2023-04-06T08:26:48;99402.97;;;2.12;53.67
75247;BME280;63844;50.042;19.224;2023-04-06T08:29:14;99400.13;;;2.07;53.55
75247;BME280;63844;50.042;19.224;2023-04-06T08:31:41;99393.27;;;2.02;53.66
75247;BME280;63844;50.042;19.224;2023-04-06T08:34:07;99394.50;;;2.09;53.93
75247;BME280;63844;50.042;19.224;2023-04-06T08:36:33;99394.19;;;2.21;54.34
75247;BME280;63844;50.042;19.224;2023-04-06T08:39:00;99395.48;;;2.38;54.69
75247;BME280;63844;50.042;19.224;2023-04-06T08:41:27;99395.14;;;2.44;53.65
75247;BME280;63844;50.042;19.224;2023-04-06T08:46:24;99389.86;;;2.33;53.35
75247;BME280;63844;50.042;19.224;2023-04-06T08:48:59;99397.08;;;2.24;53.37
75247;BME280;63844;50.042;19.224;2023-04-06T08:51:27;99391.55;;;2.14;53.01
75247;BME280;63844;50.042;19.224;2023-04-06T08:53:55;99388.27;;;2.00;53.08
75247;BME280;63844;50.042;19.224;2023-04-06T08:56:23;99390.39;;;2.05;53.42
75247;BME280;63844;50.042;19.224;2023-04-06T08:58:50;99386.10;;;2.16;53.39
75247;BME280;63844;50.042;19.224;2023-04-06T09:01:21;99379.92;;;2.19;52.90
75247;BME280;63844;50.042;19.224;2023-04-06T09:03:49;99379.71;;;2.27;52.91
75247;BME280;63844;50.042;19.224;2023-04-06T09:06:16;99374.95;;;2.36;52.63
75247;BME280;63844;50.042;19.224;2023-04-06T09:08:44;99375.73;;;2.52;52.86
75247;BME280;63844;50.042;19.224;2023-04-06T09:11:10;99370.79;;;2.66;52.27
75247;BME280;63844;50.042;19.224;2023-04-06T09:13:54;99366.73;;;2.74;51.61
75247;BME280;63844;50.042;19.224;2023-04-06T09:16:22;99371.35;;;2.65;51.93
75247;BME280;63844;50.042;19.224;2023-04-06T09:18:49;99366.20;;;2.68;52.25
75247;BME280;63844;50.042;19.224;2023-04-06T09:21:16;99360.04;;;2.82;52.19
75247;BME280;63844;50.042;19.224;2023-04-06T09:23:43;99360.91;;;2.94;52.12
75247;BME280;63844;50.042;19.224;2023-04-06T09:26:14;99356.44;;;3.03;51.50
75247;BME280;63844;50.042;19.224;2023-04-06T09:28:51;99352.77;;;3.09;51.46
75247;BME280;63844;50.042;19.224;2023-04-06T09:31:22;99357.85;;;2.85;51.17
75247;BME280;63844;50.042;19.224;2023-04-06T09:33:49;99361.58;;;2.89;51.92
75247;BME280;63844;50.042;19.224;2023-04-06T09:36:16;99356.84;;;2.96;51.42
75247;BME280;63844;50.042;19.224;2023-04-06T09:38:56;99351.26;;;2.72;51.39
75247;BME280;63844;50.042;19.224;2023-04-06T09:41:24;99348.67;;;2.94;52.17
75247;BME280;63844;50.042;19.224;2023-04-06T09:43:52;99347.77;;;3.13;51.68
75247;BME280;63844;50.042;19.224;2023-04-06T09:46:27;99348.17;;;3.23;51.28
75247;BME280;63844;50.042;19.224;2023-04-06T09:48:56;99346.52;;;3.09;51.26
75247;BME280;63844;50.042;19.224;2023-04-06T09:51:24;99342.14;;;3.20;52.17
75247;BME280;63844;50.042;19.224;2023-04-06T09:53:53;99342.61;;;3.22;51.10
75247;BME280;63844;50.042;19.224;2023-04-06T09:56:24;99342.34;;;3.25;50.99
75247;BME280;63844;50.042;19.224;2023-04-06T09:58:55;99344.02;;;3.27;51.21
75247;BME280;63844;50.042;19.224;2023-04-06T10:01:28;99343.19;;;3.42;51.88
75247;BME280;63844;50.042;19.224;2023-04-06T10:04:02;99343.95;;;3.57;51.60
75247;BME280;63844;50.042;19.224;2023-04-06T10:06:32;99347.23;;;3.36;51.11
75247;BME280;63844;50.042;19.224;2023-04-06T10:09:02;99346.02;;;3.19;51.69
75247;BME280;63844;50.042;19.224;2023-04-06T10:11:30;99344.42;;;3.02;52.33
75247;BME280;63844;50.042;19.224;2023-04-06T10:13:57;99341.54;;;3.28;52.10
75247;BME280;63844;50.042;19.224;2023-04-06T10:16:24;99336.55;;;3.25;51.52
75247;BME280;63844;50.042;19.224;2023-04-06T10:18:56;99336.46;;;3.33;52.11
75247;BME280;63844;50.042;19.224;2023-04-06T10:21:25;99332.74;;;3.35;51.52
75247;BME280;63844;50.042;19.224;2023-04-06T10:24:01;99336.20;;;3.02;51.70
75247;BME280;63844;50.042;19.224;2023-04-06T10:26:28;99330.88;;;2.87;51.83
75247;BME280;63844;50.042;19.224;2023-04-06T10:28:55;99333.17;;;2.56;51.92
75247;BME280;63844;50.042;19.224;2023-04-06T10:31:28;99330.77;;;2.72;52.86
75247;BME280;63844;50.042;19.224;2023-04-06T10:33:56;99328.40;;;2.88;52.49
75247;BME280;63844;50.042;19.224;2023-04-06T10:36:27;99325.24;;;2.94;52.65
75247;BME280;63844;50.042;19.224;2023-04-06T10:38:56;99322.81;;;3.06;52.25
75247;BME280;63844;50.042;19.224;2023-04-06T10:41:24;99321.56;;;3.06;52.65
75247;BME280;63844;50.042;19.224;2023-04-06T10:43:57;99321.54;;;3.13;52.15
75247;BME280;63844;50.042;19.224;2023-04-06T10:46:25;99319.67;;;3.23;52.13
75247;BME280;63844;50.042;19.224;2023-04-06T10:48:52;99318.05;;;3.29;52.28
75247;BME280;63844;50.042;19.224;2023-04-06T10:51:24;99316.39;;;3.32;51.91
75247;BME280;63844;50.042;19.224;2023-04-06T10:53:54;99316.56;;;3.43;51.26
75247;BME280;63844;50.042;19.224;2023-04-06T10:56:23;99314.83;;;3.43;51.07
75247;BME280;63844;50.042;19.224;2023-04-06T10:58:51;99316.35;;;3.45;51.63
75247;BME280;63844;50.042;19.224;2023-04-06T11:01:20;99312.55;;;3.38;51.32
75247;BME280;63844;50.042;19.224;2023-04-06T11:03:52;99307.29;;;3.27;50.91
75247;BME280;63844;50.042;19.224;2023-04-06T11:06:23;99301.73;;;3.48;51.13
75247;BME280;63844;50.042;19.224;2023-04-06T11:08:51;99301.80;;;3.40;51.01
75247;BME280;63844;50.042;19.224;2023-04-06T11:11:19;99298.27;;;3.25;50.66
75247;BME280;63844;50.042;19.224;2023-04-06T11:16:22;99301.64;;;3.17;51.07
75247;BME280;63844;50.042;19.224;2023-04-06T11:19:03;99298.52;;;3.17;51.15
75247;BME280;63844;50.042;19.224;2023-04-06T11:21:37;99295.00;;;3.17;50.91
75247;BME280;63844;50.042;19.224;2023-04-06T11:24:09;99294.31;;;3.28;51.13
75247;BME280;63844;50.042;19.224;2023-04-06T11:26:47;99296.04;;;3.40;50.67
75247;BME280;63844;50.042;19.224;2023-04-06T11:29:19;99295.16;;;3.00;50.48
75247;BME280;63844;50.042;19.224;2023-04-06T11:31:47;99291.20;;;2.87;50.64
75247;BME280;63844;50.042;19.224;2023-04-06T11:36:46;99287.94;;;2.85;51.21
75247;BME280;63844;50.042;19.224;2023-04-06T11:39:18;99282.46;;;2.81;51.57
75247;BME280;63844;50.042;19.224;2023-04-06T11:41:48;99278.23;;;2.88;51.72
75247;BME280;63844;50.042;19.224;2023-04-06T11:44:15;99278.54;;;3.07;51.60
75247;BME280;63844;50.042;19.224;2023-04-06T11:46:51;99281.27;;;3.09;51.14
75247;BME280;63844;50.042;19.224;2023-04-06T11:49:18;99276.75;;;3.13;51.53
75247;BME280;63844;50.042;19.224;2023-04-06T11:51:46;99276.73;;;3.14;51.16
75247;BME280;63844;50.042;19.224;2023-04-06T11:54:12;99278.89;;;3.12;51.32
75247;BME280;63844;50.042;19.224;2023-04-06T11:56:39;99278.64;;;2.86;51.57
75247;BME280;63844;50.042;19.224;2023-04-06T11:59:05;99277.11;;;2.85;51.99
75247;BME280;63844;50.042;19.224;2023-04-06T12:01:32;99275.79;;;2.88;52.19
75247;BME280;63844;50.042;19.224;2023-04-06T12:03:58;99268.77;;;3.00;52.69
75247;BME280;63844;50.042;19.224;2023-04-06T12:06:25;99272.92;;;3.08;52.52
75247;BME280;63844;50.042;19.224;2023-04-06T12:08:52;99273.05;;;3.14;52.74
75247;BME280;63844;50.042;19.224;2023-04-06T12:11:18;99266.55;;;3.15;52.71
75247;BME280;63844;50.042;19.224;2023-04-06T12:13:46;99268.63;;;2.88;53.81
75247;BME280;63844;50.042;19.224;2023-04-06T12:16:12;99266.41;;;2.86;54.38
75247;BME280;63844;50.042;19.224;2023-04-06T12:18:39;99264.31;;;2.86;54.96
75247;BME280;63844;50.042;19.224;2023-04-06T12:21:05;99267.16;;;2.90;54.76
75247;BME280;63844;50.042;19.224;2023-04-06T12:23:32;99264.90;;;2.89;54.99
75247;BME280;63844;50.042;19.224;2023-04-06T12:25:58;99267.50;;;2.79;56.57
75247;BME280;63844;50.042;19.224;2023-04-06T12:28:25;99267.59;;;2.70;57.65
75247;BME280;63844;50.042;19.224;2023-04-06T12:30:53;99269.05;;;2.68;58.37
75247;BME280;63844;50.042;19.224;2023-04-06T12:33:20;99268.25;;;2.59;58.67
75247;BME280;63844;50.042;19.224;2023-04-06T12:35:47;99264.02;;;2.61;58.64
75247;BME280;63844;50.042;19.224;2023-04-06T12:38:13;99261.20;;;2.56;59.67
75247;BME280;63844;50.042;19.224;2023-04-06T12:40:40;99263.88;;;2.47;60.14
75247;BME280;63844;50.042;19.224;2023-04-06T12:43:07;99261.91;;;2.43;60.67
75247;BME280;63844;50.042;19.224;2023-04-06T12:45:33;99262.60;;;2.31;61.13
75247;BME280;63844;50.042;19.224;2023-04-06T12:48:00;99262.33;;;2.22;61.38
75247;BME280;63844;50.042;19.224;2023-04-06T12:50:26;99261.40;;;2.23;61.70
75247;BME280;63844;50.042;19.224;2023-04-06T12:52:53;99267.74;;;2.22;62.87
75247;BME280;63844;50.042;19.224;2023-04-06T12:55:19;99265.98;;;2.10;63.97
75247;BME280;63844;50.042;19.224;2023-04-06T12:57:46;99263.70;;;2.10;63.38
75247;BME280;63844;50.042;19.224;2023-04-06T13:00:13;99264.61;;;2.16;63.78
75247;BME280;63844;50.042;19.224;2023-04-06T13:02:40;99264.20;;;1.84;65.45